sensor_id;sensor_type;location;lat;lon;timestamp;P1;durP1;ratioP1;P2;durP2;ratioP2
13520;SDS011;6832;51.186;3.236;2023-04-06T00:02:07;65.13;;;18.30;;
13520;SDS011;6832;51.186;3.236;2023-04-06T00:04:34;41.03;;;17.40;;
13520;SDS011;6832;51.186;3.236;2023-04-06T00:07:02;46.27;;;16.93;;
13520;SDS011;6832;51.186;3.236;2023-04-06T00:09:29;58.53;;;17.87;;
13520;SDS011;6832;51.186;3.236;2023-04-06T00:11:56;36.63;;;16.40;;
13520;SDS011;6832;51.186;3.236;2023-04-06T00:14:23;41.00;;;17.13;;
13520;SDS011;6832;51.186;3.236;2023-04-06T00:16:50;49.97;;;18.40;;
13520;SDS011;6832;51.186;3.236;2023-04-06T00:19:17;70.33;;;19.20;;
13520;SDS011;6832;51.186;3.236;2023-04-06T00:21:45;41.50;;;16.87;;
13520;SDS011;6832;51.186;3.236;2023-04-06T00:24:13;42.00;;;16.97;;
13520;SDS011;6832;51.186;3.236;2023-04-06T00:26:40;41.60;;;16.50;;
13520;SDS011;6832;51.186;3.236;2023-04-06T00:29:07;44.03;;;17.63;;
13520;SDS011;6832;51.186;3.236;2023-04-06T00:31:34;45.77;;;16.90;;
13520;SDS011;6832;51.186;3.236;2023-04-06T00:34:01;50.23;;;16.83;;
13520;SDS011;6832;51.186;3.236;2023-04-06T00:36:28;47.00;;;16.73;;
13520;SDS011;6832;51.186;3.236;2023-04-06T00:38:55;36.10;;;16.40;;
13520;SDS011;6832;51.186;3.236;2023-04-06T00:41:23;44.87;;;16.57;;
13520;SDS011;6832;51.186;3.236;2023-04-06T00:43:51;62.57;;;19.07;;
13520;SDS011;6832;51.186;3.236;2023-04-06T00:46:19;51.47;;;17.27;;
13520;SDS011;6832;51.186;3.236;2023-04-06T00:48:46;34.77;;;16.10;;
13520;SDS011;6832;51.186;3.236;2023-04-06T00:51:13;42.47;;;16.57;;
13520;SDS011;6832;51.186;3.236;2023-04-06T00:53:40;50.07;;;17.03;;
13520;SDS011;6832;51.186;3.236;2023-04-06T00:56:07;44.53;;;17.47;;
13520;SDS011;6832;51.186;3.236;2023-04-06T00:58:38;39.63;;;16.17;;
13520;SDS011;6832;51.186;3.236;2023-04-06T01:01:05;45.87;;;17.27;;
13520;SDS011;6832;51.186;3.236;2023-04-06T01:03:32;39.63;;;16.23;;
13520;SDS011;6832;51.186;3.236;2023-04-06T01:05:59;35.80;;;16.03;;
13520;SDS011;6832;51.186;3.236;2023-04-06T01:08:26;45.93;;;17.07;;
13520;SDS011;6832;51.186;3.236;2023-04-06T01:10:54;43.13;;;17.10;;
13520;SDS011;6832;51.186;3.236;2023-04-06T01:13:21;45.03;;;17.03;;
13520;SDS011;6832;51.186;3.236;2023-04-06T01:15:49;44.07;;;16.77;;
13520;SDS011;6832;51.186;3.236;2023-04-06T01:18:16;47.83;;;17.53;;
13520;SDS011;6832;51.186;3.236;2023-04-06T01:20:43;61.33;;;18.37;;
13520;SDS011;6832;51.186;3.236;2023-04-06T01:23:12;49.63;;;16.97;;
13520;SDS011;6832;51.186;3.236;2023-04-06T01:25:39;54.77;;;18.20;;
13520;SDS011;6832;51.186;3.236;2023-04-06T01:28:06;33.80;;;15.73;;
13520;SDS011;6832;51.186;3.236;2023-04-06T01:30:33;56.20;;;17.37;;
13520;SDS011;6832;51.186;3.236;2023-04-06T01:33:00;44.43;;;17.10;;
13520;SDS011;6832;51.186;3.236;2023-04-06T01:35:27;37.40;;;16.03;;
13520;SDS011;6832;51.186;3.236;2023-04-06T01:37:55;41.00;;;17.40;;
13520;SDS011;6832;51.186;3.236;2023-04-06T01:40:23;68.87;;;20.17;;
13520;SDS011;6832;51.186;3.236;2023-04-06T01:42:50;39.07;;;16.43;;
13520;SDS011;6832;51.186;3.236;2023-04-06T01:45:17;41.37;;;15.83;;
13520;SDS011;6832;51.186;3.236;2023-04-06T01:47:44;37.43;;;16.27;;
13520;SDS011;6832;51.186;3.236;2023-04-06T01:50:11;58.80;;;17.07;;
13520;SDS011;6832;51.186;3.236;2023-04-06T01:52:38;52.77;;;17.67;;
13520;SDS011;6832;51.186;3.236;2023-04-06T01:55:05;40.57;;;16.23;;
13520;SDS011;6832;51.186;3.236;2023-04-06T01:57:34;41.00;;;17.80;;
13520;SDS011;6832;51.186;3.236;2023-04-06T02:00:01;40.30;;;15.63;;
13520;SDS011;6832;51.186;3.236;2023-04-06T02:02:29;50.37;;;15.93;;
13520;SDS011;6832;51.186;3.236;2023-04-06T02:04:56;40.63;;;16.57;;
13520;SDS011;6832;51.186;3.236;2023-04-06T02:07:23;38.77;;;15.43;;
13520;SDS011;6832;51.186;3.236;2023-04-06T02:09:50;37.77;;;15.17;;
13520;SDS011;6832;51.186;3.236;2023-04-06T02:12:20;57.33;;;16.00;;
13520;SDS011;6832;51.186;3.236;2023-04-06T02:14:48;49.97;;;16.53;;
13520;SDS011;6832;51.186;3.236;2023-04-06T02:17:15;36.90;;;15.00;;
13520;SDS011;6832;51.186;3.236;2023-04-06T02:19:42;72.23;;;17.73;;
13520;SDS011;6832;51.186;3.236;2023-04-06T02:22:09;68.90;;;18.17;;
13520;SDS011;6832;51.186;3.236;2023-04-06T02:24:37;38.97;;;15.10;;
13520;SDS011;6832;51.186;3.236;2023-04-06T02:27:04;39.17;;;15.70;;
13520;SDS011;6832;51.186;3.236;2023-04-06T02:29:31;49.87;;;15.27;;
13520;SDS011;6832;51.186;3.236;2023-04-06T02:31:59;50.03;;;15.57;;
13520;SDS011;6832;51.186;3.236;2023-04-06T02:34:26;56.73;;;16.73;;
13520;SDS011;6832;51.186;3.236;2023-04-06T02:36:54;47.27;;;16.00;;
13520;SDS011;6832;51.186;3.236;2023-04-06T02:39:21;40.87;;;15.10;;
13520;SDS011;6832;51.186;3.236;2023-04-06T02:41:49;45.03;;;15.80;;
13520;SDS011;6832;51.186;3.236;2023-04-06T02:44:15;41.80;;;15.00;;
13520;SDS011;6832;51.186;3.236;2023-04-06T02:46:42;37.53;;;14.63;;
13520;SDS011;6832;51.186;3.236;2023-04-06T02:49:11;31.17;;;13.80;;
13520;SDS011;6832;51.186;3.236;2023-04-06T02:51:38;43.20;;;14.37;;
13520;SDS011;6832;51.186;3.236;2023-04-06T02:54:05;39.53;;;13.87;;
13520;SDS011;6832;51.186;3.236;2023-04-06T02:56:32;38.70;;;14.00;;
13520;SDS011;6832;51.186;3.236;2023-04-06T02:58:59;52.37;;;15.13;;
13520;SDS011;6832;51.186;3.236;2023-04-06T03:01:26;30.47;;;13.30;;
13520;SDS011;6832;51.186;3.236;2023-04-06T03:03:53;34.33;;;14.17;;
13520;SDS011;6832;51.186;3.236;2023-04-06T03:06:22;51.00;;;15.57;;
13520;SDS011;6832;51.186;3.236;2023-04-06T03:08:49;32.27;;;13.83;;
13520;SDS011;6832;51.186;3.236;2023-04-06T03:11:16;36.57;;;12.80;;
13520;SDS011;6832;51.186;3.236;2023-04-06T03:13:44;40.97;;;14.63;;
13520;SDS011;6832;51.186;3.236;2023-04-06T03:16:11;36.07;;;14.27;;
13520;SDS011;6832;51.186;3.236;2023-04-06T03:18:38;47.80;;;15.00;;
13520;SDS011;6832;51.186;3.236;2023-04-06T03:21:05;34.30;;;13.10;;
13520;SDS011;6832;51.186;3.236;2023-04-06T03:23:33;84.87;;;17.70;;
13520;SDS011;6832;51.186;3.236;2023-04-06T03:26:00;78.50;;;17.03;;
13520;SDS011;6832;51.186;3.236;2023-04-06T03:28:28;61.33;;;16.60;;
13520;SDS011;6832;51.186;3.236;2023-04-06T03:30:55;39.10;;;13.87;;
13520;SDS011;6832;51.186;3.236;2023-04-06T03:33:22;48.07;;;15.00;;
13520;SDS011;6832;51.186;3.236;2023-04-06T03:35:49;44.93;;;14.70;;
13520;SDS011;6832;51.186;3.236;2023-04-06T03:38:16;49.87;;;15.07;;
13520;SDS011;6832;51.186;3.236;2023-04-06T03:40:44;35.77;;;14.03;;
13520;SDS011;6832;51.186;3.236;2023-04-06T03:43:12;33.93;;;12.57;;
13520;SDS011;6832;51.186;3.236;2023-04-06T03:45:39;62.00;;;15.57;;
13520;SDS011;6832;51.186;3.236;2023-04-06T03:48:06;33.40;;;13.07;;
13520;SDS011;6832;51.186;3.236;2023-04-06T03:50:33;41.93;;;13.77;;
13520;SDS011;6832;51.186;3.236;2023-04-06T03:53:00;41.93;;;13.43;;
13520;SDS011;6832;51.186;3.236;2023-04-06T03:55:28;34.53;;;12.40;;
13520;SDS011;6832;51.186;3.236;2023-04-06T03:57:56;34.27;;;13.00;;
13520;SDS011;6832;51.186;3.236;2023-04-06T04:00:24;33.90;;;13.27;;
13520;SDS011;6832;51.186;3.236;2023-04-06T04:02:51;38.80;;;13.83;;
13520;SDS011;6832;51.186;3.236;2023-04-06T04:05:18;32.27;;;12.97;;
13520;SDS011;6832;51.186;3.236;2023-04-06T04:07:50;44.50;;;13.63;;
13520;SDS011;6832;51.186;3.236;2023-04-06T04:10:17;52.33;;;14.27;;
13520;SDS011;6832;51.186;3.236;2023-04-06T04:12:44;37.60;;;14.13;;
13520;SDS011;6832;51.186;3.236;2023-04-06T04:15:12;31.60;;;13.43;;
13520;SDS011;6832;51.186;3.236;2023-04-06T04:17:39;34.37;;;12.60;;
13520;SDS011;6832;51.186;3.236;2023-04-06T04:20:07;31.27;;;11.87;;
13520;SDS011;6832;51.186;3.236;2023-04-06T04:22:34;54.33;;;13.90;;
13520;SDS011;6832;51.186;3.236;2023-04-06T04:25:01;37.10;;;13.10;;
13520;SDS011;6832;51.186;3.236;2023-04-06T04:27:28;52.53;;;14.20;;
13520;SDS011;6832;51.186;3.236;2023-04-06T04:29:55;39.63;;;13.13;;
13520;SDS011;6832;51.186;3.236;2023-04-06T04:32:23;44.03;;;12.47;;
13520;SDS011;6832;51.186;3.236;2023-04-06T04:34:52;66.60;;;15.43;;
13520;SDS011;6832;51.186;3.236;2023-04-06T04:37:19;75.20;;;15.53;;
13520;SDS011;6832;51.186;3.236;2023-04-06T04:39:46;60.63;;;14.47;;
13520;SDS011;6832;51.186;3.236;2023-04-06T04:42:13;60.00;;;13.93;;
13520;SDS011;6832;51.186;3.236;2023-04-06T04:44:40;43.07;;;13.00;;
13520;SDS011;6832;51.186;3.236;2023-04-06T04:47:07;39.27;;;12.83;;
13520;SDS011;6832;51.186;3.236;2023-04-06T04:49:36;32.37;;;11.07;;
13520;SDS011;6832;51.186;3.236;2023-04-06T04:52:03;43.03;;;12.87;;
13520;SDS011;6832;51.186;3.236;2023-04-06T04:54:30;29.53;;;11.13;;
13520;SDS011;6832;51.186;3.236;2023-04-06T04:56:56;42.13;;;12.03;;
13520;SDS011;6832;51.186;3.236;2023-04-06T04:59:23;54.13;;;12.17;;
13520;SDS011;6832;51.186;3.236;2023-04-06T05:01:54;26.57;;;9.87;;
13520;SDS011;6832;51.186;3.236;2023-04-06T05:04:21;30.47;;;10.33;;
13520;SDS011;6832;51.186;3.236;2023-04-06T05:06:50;34.60;;;10.83;;
13520;SDS011;6832;51.186;3.236;2023-04-06T05:09:17;33.10;;;10.73;;
13520;SDS011;6832;51.186;3.236;2023-04-06T05:11:44;31.53;;;10.27;;
13520;SDS011;6832;51.186;3.236;2023-04-06T05:14:11;30.33;;;10.70;;
13520;SDS011;6832;51.186;3.236;2023-04-06T05:16:38;39.77;;;10.97;;
13520;SDS011;6832;51.186;3.236;2023-04-06T05:19:05;40.73;;;10.90;;
13520;SDS011;6832;51.186;3.236;2023-04-06T05:21:32;51.03;;;11.13;;
13520;SDS011;6832;51.186;3.236;2023-04-06T05:24:02;74.20;;;13.67;;
13520;SDS011;6832;51.186;3.236;2023-04-06T05:26:29;39.77;;;10.23;;
13520;SDS011;6832;51.186;3.236;2023-04-06T05:28:56;51.53;;;11.00;;
13520;SDS011;6832;51.186;3.236;2023-04-06T05:31:23;45.23;;;11.23;;
13520;SDS011;6832;51.186;3.236;2023-04-06T05:33:50;35.10;;;9.70;;
13520;SDS011;6832;51.186;3.236;2023-04-06T05:36:17;42.80;;;10.23;;
13520;SDS011;6832;51.186;3.236;2023-04-06T05:38:44;49.90;;;11.10;;
13520;SDS011;6832;51.186;3.236;2023-04-06T05:41:12;46.53;;;10.60;;
13520;SDS011;6832;51.186;3.236;2023-04-06T05:43:39;62.63;;;11.07;;
13520;SDS011;6832;51.186;3.236;2023-04-06T05:46:06;34.80;;;9.10;;
13520;SDS011;6832;51.186;3.236;2023-04-06T05:48:33;34.93;;;9.40;;
13520;SDS011;6832;51.186;3.236;2023-04-06T05:51:03;37.77;;;9.53;;
13520;SDS011;6832;51.186;3.236;2023-04-06T05:53:32;39.50;;;9.90;;
13520;SDS011;6832;51.186;3.236;2023-04-06T05:56:00;39.83;;;9.43;;
13520;SDS011;6832;51.186;3.236;2023-04-06T05:58:28;34.23;;;9.43;;
13520;SDS011;6832;51.186;3.236;2023-04-06T06:00:56;35.97;;;9.87;;
13520;SDS011;6832;51.186;3.236;2023-04-06T06:03:24;39.47;;;9.17;;
13520;SDS011;6832;51.186;3.236;2023-04-06T06:05:52;27.47;;;8.80;;
13520;SDS011;6832;51.186;3.236;2023-04-06T06:08:19;32.50;;;8.93;;
13520;SDS011;6832;51.186;3.236;2023-04-06T06:10:48;51.23;;;9.63;;
13520;SDS011;6832;51.186;3.236;2023-04-06T06:13:16;29.33;;;8.37;;
13520;SDS011;6832;51.186;3.236;2023-04-06T06:15:44;29.37;;;8.30;;
13520;SDS011;6832;51.186;3.236;2023-04-06T06:18:12;32.57;;;8.70;;
13520;SDS011;6832;51.186;3.236;2023-04-06T06:20:40;24.50;;;7.47;;
13520;SDS011;6832;51.186;3.236;2023-04-06T06:23:07;38.90;;;8.37;;
13520;SDS011;6832;51.186;3.236;2023-04-06T06:25:34;23.20;;;6.80;;
13520;SDS011;6832;51.186;3.236;2023-04-06T06:28:01;27.33;;;7.37;;
13520;SDS011;6832;51.186;3.236;2023-04-06T06:30:28;22.73;;;6.77;;
13520;SDS011;6832;51.186;3.236;2023-04-06T06:32:57;47.77;;;8.87;;
13520;SDS011;6832;51.186;3.236;2023-04-06T06:35:24;30.83;;;7.90;;
13520;SDS011;6832;51.186;3.236;2023-04-06T06:37:51;34.63;;;8.07;;
13520;SDS011;6832;51.186;3.236;2023-04-06T06:40:18;30.60;;;8.33;;
13520;SDS011;6832;51.186;3.236;2023-04-06T06:42:49;29.77;;;6.93;;
13520;SDS011;6832;51.186;3.236;2023-04-06T06:45:17;38.40;;;8.10;;
13520;SDS011;6832;51.186;3.236;2023-04-06T06:47:45;32.77;;;7.27;;
13520;SDS011;6832;51.186;3.236;2023-04-06T06:50:13;30.27;;;7.47;;
13520;SDS011;6832;51.186;3.236;2023-04-06T06:52:40;40.87;;;8.40;;
13520;SDS011;6832;51.186;3.236;2023-04-06T06:55:08;38.00;;;8.10;;
13520;SDS011;6832;51.186;3.236;2023-04-06T06:57:36;36.93;;;9.03;;
13520;SDS011;6832;51.186;3.236;2023-04-06T07:00:03;48.50;;;9.23;;
13520;SDS011;6832;51.186;3.236;2023-04-06T07:02:33;37.63;;;7.83;;
13520;SDS011;6832;51.186;3.236;2023-04-06T07:05:01;30.00;;;7.07;;
13520;SDS011;6832;51.186;3.236;2023-04-06T07:07:31;29.10;;;7.10;;
13520;SDS011;6832;51.186;3.236;2023-04-06T07:09:58;42.83;;;7.93;;
13520;SDS011;6832;51.186;3.236;2023-04-06T07:12:26;37.83;;;8.40;;
13520;SDS011;6832;51.186;3.236;2023-04-06T07:14:53;31.23;;;6.87;;
13520;SDS011;6832;51.186;3.236;2023-04-06T07:17:20;41.97;;;8.13;;
13520;SDS011;6832;51.186;3.236;2023-04-06T07:19:48;28.93;;;7.03;;
13520;SDS011;6832;51.186;3.236;2023-04-06T07:22:15;41.80;;;7.87;;
13520;SDS011;6832;51.186;3.236;2023-04-06T07:24:43;52.23;;;8.70;;
13520;SDS011;6832;51.186;3.236;2023-04-06T07:27:10;43.33;;;8.37;;
13520;SDS011;6832;51.186;3.236;2023-04-06T07:29:40;39.87;;;8.67;;
13520;SDS011;6832;51.186;3.236;2023-04-06T07:32:07;38.67;;;7.97;;
13520;SDS011;6832;51.186;3.236;2023-04-06T07:34:34;39.43;;;8.37;;
13520;SDS011;6832;51.186;3.236;2023-04-06T07:37:01;40.37;;;8.43;;
13520;SDS011;6832;51.186;3.236;2023-04-06T07:39:28;67.70;;;10.17;;
13520;SDS011;6832;51.186;3.236;2023-04-06T07:41:57;24.70;;;7.07;;
13520;SDS011;6832;51.186;3.236;2023-04-06T07:44:24;40.30;;;8.47;;
13520;SDS011;6832;51.186;3.236;2023-04-06T07:46:51;76.33;;;11.20;;
13520;SDS011;6832;51.186;3.236;2023-04-06T07:49:18;48.13;;;9.03;;
13520;SDS011;6832;51.186;3.236;2023-04-06T07:51:46;34.63;;;7.83;;
13520;SDS011;6832;51.186;3.236;2023-04-06T07:54:13;38.93;;;8.23;;
13520;SDS011;6832;51.186;3.236;2023-04-06T07:56:40;39.77;;;8.23;;
13520;SDS011;6832;51.186;3.236;2023-04-06T07:59:08;26.33;;;6.70;;
13520;SDS011;6832;51.186;3.236;2023-04-06T08:01:36;25.57;;;7.03;;
13520;SDS011;6832;51.186;3.236;2023-04-06T08:04:03;28.93;;;6.83;;
13520;SDS011;6832;51.186;3.236;2023-04-06T08:06:30;25.57;;;6.80;;
13520;SDS011;6832;51.186;3.236;2023-04-06T08:09:01;48.97;;;8.33;;
13520;SDS011;6832;51.186;3.236;2023-04-06T08:11:28;24.33;;;6.67;;
13520;SDS011;6832;51.186;3.236;2023-04-06T08:13:56;29.63;;;7.33;;
13520;SDS011;6832;51.186;3.236;2023-04-06T08:16:24;35.07;;;8.03;;
13520;SDS011;6832;51.186;3.236;2023-04-06T08:18:51;23.70;;;6.87;;
13520;SDS011;6832;51.186;3.236;2023-04-06T08:21:18;29.63;;;8.37;;
13520;SDS011;6832;51.186;3.236;2023-04-06T08:23:45;29.93;;;7.37;;
13520;SDS011;6832;51.186;3.236;2023-04-06T08:26:12;38.27;;;8.43;;
13520;SDS011;6832;51.186;3.236;2023-04-06T08:28:39;35.40;;;8.30;;
13520;SDS011;6832;51.186;3.236;2023-04-06T08:31:06;35.07;;;8.27;;
13520;SDS011;6832;51.186;3.236;2023-04-06T08:33:35;32.83;;;8.10;;
13520;SDS011;6832;51.186;3.236;2023-04-06T08:36:08;27.77;;;7.97;;
13520;SDS011;6832;51.186;3.236;2023-04-06T08:38:35;44.03;;;8.87;;
13520;SDS011;6832;51.186;3.236;2023-04-06T08:41:12;49.77;;;9.50;;
13520;SDS011;6832;51.186;3.236;2023-04-06T08:43:41;42.33;;;9.67;;
13520;SDS011;6832;51.186;3.236;2023-04-06T08:46:11;40.73;;;9.70;;
13520;SDS011;6832;51.186;3.236;2023-04-06T08:48:40;21.63;;;6.90;;
13520;SDS011;6832;51.186;3.236;2023-04-06T08:51:08;33.60;;;8.00;;
13520;SDS011;6832;51.186;3.236;2023-04-06T08:53:36;31.53;;;9.07;;
13520;SDS011;6832;51.186;3.236;2023-04-06T08:56:03;29.90;;;7.97;;
13520;SDS011;6832;51.186;3.236;2023-04-06T08:58:32;36.60;;;8.67;;
13520;SDS011;6832;51.186;3.236;2023-04-06T09:01:00;30.67;;;8.73;;
13520;SDS011;6832;51.186;3.236;2023-04-06T09:03:32;30.50;;;8.37;;
13520;SDS011;6832;51.186;3.236;2023-04-06T09:06:02;48.63;;;10.40;;
13520;SDS011;6832;51.186;3.236;2023-04-06T09:08:30;24.37;;;7.93;;
13520;SDS011;6832;51.186;3.236;2023-04-06T09:10:58;36.87;;;9.07;;
13520;SDS011;6832;51.186;3.236;2023-04-06T09:13:26;32.70;;;9.17;;
13520;SDS011;6832;51.186;3.236;2023-04-06T09:16:00;39.87;;;9.40;;
13520;SDS011;6832;51.186;3.236;2023-04-06T09:18:28;33.93;;;9.33;;
13520;SDS011;6832;51.186;3.236;2023-04-06T09:20:57;47.67;;;10.63;;
13520;SDS011;6832;51.186;3.236;2023-04-06T09:23:26;41.17;;;10.07;;
13520;SDS011;6832;51.186;3.236;2023-04-06T09:26:04;27.97;;;8.77;;
13520;SDS011;6832;51.186;3.236;2023-04-06T09:28:40;30.73;;;8.33;;
13520;SDS011;6832;51.186;3.236;2023-04-06T09:31:08;31.00;;;9.53;;
13520;SDS011;6832;51.186;3.236;2023-04-06T09:33:37;39.07;;;9.10;;
13520;SDS011;6832;51.186;3.236;2023-04-06T09:36:07;44.27;;;10.30;;
13520;SDS011;6832;51.186;3.236;2023-04-06T09:38:50;41.83;;;9.97;;
13520;SDS011;6832;51.186;3.236;2023-04-06T09:41:20;37.90;;;10.27;;
13520;SDS011;6832;51.186;3.236;2023-04-06T09:43:49;65.93;;;12.77;;
13520;SDS011;6832;51.186;3.236;2023-04-06T09:46:17;47.57;;;10.13;;
13520;SDS011;6832;51.186;3.236;2023-04-06T09:48:47;52.60;;;11.57;;
13520;SDS011;6832;51.186;3.236;2023-04-06T09:51:16;47.67;;;11.43;;
13520;SDS011;6832;51.186;3.236;2023-04-06T09:53:51;48.37;;;10.27;;
13520;SDS011;6832;51.186;3.236;2023-04-06T09:56:20;30.47;;;9.10;;
13520;SDS011;6832;51.186;3.236;2023-04-06T09:58:54;46.93;;;10.77;;
13520;SDS011;6832;51.186;3.236;2023-04-06T10:01:29;42.77;;;10.90;;
13520;SDS011;6832;51.186;3.236;2023-04-06T10:04:01;50.47;;;10.37;;
13520;SDS011;6832;51.186;3.236;2023-04-06T10:06:37;32.50;;;9.03;;
13520;SDS011;6832;51.186;3.236;2023-04-06T10:09:07;67.00;;;12.27;;
13520;SDS011;6832;51.186;3.236;2023-04-06T10:11:35;44.73;;;10.03;;
13520;SDS011;6832;51.186;3.236;2023-04-06T10:14:08;21.27;;;8.90;;
13520;SDS011;6832;51.186;3.236;2023-04-06T10:16:36;20.90;;;9.10;;
13520;SDS011;6832;51.186;3.236;2023-04-06T10:19:05;26.90;;;8.40;;
13520;SDS011;6832;51.186;3.236;2023-04-06T10:21:38;23.00;;;8.43;;
13520;SDS011;6832;51.186;3.236;2023-04-06T10:24:11;29.60;;;8.60;;
13520;SDS011;6832;51.186;3.236;2023-04-06T10:26:39;26.57;;;8.93;;
13520;SDS011;6832;51.186;3.236;2023-04-06T10:29:06;27.90;;;8.43;;
13520;SDS011;6832;51.186;3.236;2023-04-06T10:31:39;41.00;;;9.73;;
13520;SDS011;6832;51.186;3.236;2023-04-06T10:34:08;25.33;;;8.67;;
13520;SDS011;6832;51.186;3.236;2023-04-06T10:36:39;47.43;;;10.07;;
13520;SDS011;6832;51.186;3.236;2023-04-06T10:39:06;33.70;;;8.67;;
13520;SDS011;6832;51.186;3.236;2023-04-06T10:41:36;40.70;;;9.50;;
13520;SDS011;6832;51.186;3.236;2023-04-06T10:44:07;54.50;;;10.77;;
13520;SDS011;6832;51.186;3.236;2023-04-06T10:46:34;30.67;;;9.33;;
13520;SDS011;6832;51.186;3.236;2023-04-06T10:49:09;27.83;;;8.40;;
13520;SDS011;6832;51.186;3.236;2023-04-06T10:51:38;31.30;;;8.53;;
13520;SDS011;6832;51.186;3.236;2023-04-06T10:54:06;29.90;;;8.83;;
13520;SDS011;6832;51.186;3.236;2023-04-06T10:56:36;34.30;;;9.53;;
13520;SDS011;6832;51.186;3.236;2023-04-06T10:59:04;28.13;;;8.00;;
13520;SDS011;6832;51.186;3.236;2023-04-06T11:01:47;35.70;;;9.20;;
13520;SDS011;6832;51.186;3.236;2023-04-06T11:04:15;29.20;;;8.57;;
13520;SDS011;6832;51.186;3.236;2023-04-06T11:06:45;25.47;;;7.93;;
13520;SDS011;6832;51.186;3.236;2023-04-06T11:09:22;31.10;;;8.20;;
13520;SDS011;6832;51.186;3.236;2023-04-06T11:11:52;25.53;;;7.93;;
13520;SDS011;6832;51.186;3.236;2023-04-06T11:14:20;28.20;;;7.83;;
13520;SDS011;6832;51.186;3.236;2023-04-06T11:16:47;23.40;;;7.77;;
13520;SDS011;6832;51.186;3.236;2023-04-06T11:19:15;29.00;;;7.77;;
13520;SDS011;6832;51.186;3.236;2023-04-06T11:21:43;27.33;;;8.10;;
13520;SDS011;6832;51.186;3.236;2023-04-06T11:24:13;33.97;;;8.70;;
13520;SDS011;6832;51.186;3.236;2023-04-06T11:26:42;26.37;;;7.60;;
13520;SDS011;6832;51.186;3.236;2023-04-06T11:29:15;26.63;;;7.80;;
13520;SDS011;6832;51.186;3.236;2023-04-06T11:31:45;30.20;;;8.43;;
13520;SDS011;6832;51.186;3.236;2023-04-06T11:34:13;43.40;;;8.83;;
13520;SDS011;6832;51.186;3.236;2023-04-06T11:36:45;29.73;;;8.23;;
13520;SDS011;6832;51.186;3.236;2023-04-06T11:39:13;54.40;;;9.97;;
13520;SDS011;6832;51.186;3.236;2023-04-06T11:41:57;37.07;;;8.90;;
13520;SDS011;6832;51.186;3.236;2023-04-06T11:44:32;51.03;;;9.70;;
13520;SDS011;6832;51.186;3.236;2023-04-06T11:47:00;22.93;;;7.53;;
13520;SDS011;6832;51.186;3.236;2023-04-06T11:49:30;38.90;;;8.93;;
13520;SDS011;6832;51.186;3.236;2023-04-06T11:54:46;30.53;;;8.20;;
13520;SDS011;6832;51.186;3.236;2023-04-06T11:57:14;31.27;;;8.43;;
13520;SDS011;6832;51.186;3.236;2023-04-06T11:59:43;55.47;;;10.00;;
13520;SDS011;6832;51.186;3.236;2023-04-06T12:02:10;58.10;;;11.20;;
13520;SDS011;6832;51.186;3.236;2023-04-06T12:04:38;31.67;;;7.93;;
13520;SDS011;6832;51.186;3.236;2023-04-06T12:07:05;46.70;;;9.53;;
13520;SDS011;6832;51.186;3.236;2023-04-06T12:09:32;30.30;;;8.53;;
13520;SDS011;6832;51.186;3.236;2023-04-06T12:11:59;24.83;;;8.00;;
13520;SDS011;6832;51.186;3.236;2023-04-06T12:14:26;46.53;;;9.50;;
13520;SDS011;6832;51.186;3.236;2023-04-06T12:16:55;24.23;;;7.67;;
13520;SDS011;6832;51.186;3.236;2023-04-06T12:19:22;32.37;;;8.53;;
13520;SDS011;6832;51.186;3.236;2023-04-06T12:21:50;37.20;;;9.37;;
13520;SDS011;6832;51.186;3.236;2023-04-06T12:24:18;38.63;;;8.87;;
13520;SDS011;6832;51.186;3.236;2023-04-06T12:26:45;32.37;;;9.10;;
13520;SDS011;6832;51.186;3.236;2023-04-06T12:29:12;32.83;;;9.23;;
13520;SDS011;6832;51.186;3.236;2023-04-06T12:31:40;28.00;;;7.87;;
13520;SDS011;6832;51.186;3.236;2023-04-06T12:34:10;31.20;;;8.80;;
13520;SDS011;6832;51.186;3.236;2023-04-06T12:36:38;27.23;;;8.43;;
13520;SDS011;6832;51.186;3.236;2023-04-06T12:39:05;32.77;;;8.80;;
13520;SDS011;6832;51.186;3.236;2023-04-06T12:41:32;58.00;;;10.93;;
13520;SDS011;6832;51.186;3.236;2023-04-06T12:43:59;30.00;;;8.37;;
13520;SDS011;6832;51.186;3.236;2023-04-06T12:46:27;34.67;;;9.30;;
13520;SDS011;6832;51.186;3.236;2023-04-06T12:48:55;38.07;;;9.03;;
13520;SDS011;6832;51.186;3.236;2023-04-06T12:51:26;32.50;;;8.93;;
13520;SDS011;6832;51.186;3.236;2023-04-06T12:53:54;47.90;;;9.80;;
13520;SDS011;6832;51.186;3.236;2023-04-06T12:56:21;27.97;;;7.70;;
13520;SDS011;6832;51.186;3.236;2023-04-06T12:58:50;29.17;;;8.33;;
13520;SDS011;6832;51.186;3.236;2023-04-06T13:01:18;27.90;;;8.63;;
13520;SDS011;6832;51.186;3.236;2023-04-06T13:03:45;31.07;;;8.70;;
13520;SDS011;6832;51.186;3.236;2023-04-06T13:06:18;33.10;;;8.83;;
13520;SDS011;6832;51.186;3.236;2023-04-06T13:08:46;28.90;;;7.87;;
13520;SDS011;6832;51.186;3.236;2023-04-06T13:11:15;31.93;;;8.53;;
13520;SDS011;6832;51.186;3.236;2023-04-06T13:13:42;23.27;;;8.00;;
13520;SDS011;6832;51.186;3.236;2023-04-06T13:16:09;47.27;;;9.63;;
13520;SDS011;6832;51.186;3.236;2023-04-06T13:18:36;24.13;;;8.20;;
13520;SDS011;6832;51.186;3.236;2023-04-06T13:21:03;24.03;;;7.27;;
13520;SDS011;6832;51.186;3.236;2023-04-06T13:23:31;28.37;;;8.03;;
13520;SDS011;6832;51.186;3.236;2023-04-06T13:26:00;30.33;;;7.23;;
13520;SDS011;6832;51.186;3.236;2023-04-06T13:28:29;27.30;;;7.43;;
13520;SDS011;6832;51.186;3.236;2023-04-06T13:30:57;32.13;;;7.50;;
13520;SDS011;6832;51.186;3.236;2023-04-06T13:33:25;40.50;;;8.17;;
13520;SDS011;6832;51.186;3.236;2023-04-06T13:35:56;53.70;;;9.77;;
13520;SDS011;6832;51.186;3.236;2023-04-06T13:38:24;23.87;;;6.90;;
13520;SDS011;6832;51.186;3.236;2023-04-06T13:40:51;57.73;;;9.57;;
13520;SDS011;6832;51.186;3.236;2023-04-06T13:43:21;41.17;;;8.70;;
13520;SDS011;6832;51.186;3.236;2023-04-06T13:45:53;49.70;;;8.67;;
13520;SDS011;6832;51.186;3.236;2023-04-06T13:48:24;55.07;;;10.17;;
13520;SDS011;6832;51.186;3.236;2023-04-06T13:50:52;32.67;;;7.77;;
13520;SDS011;6832;51.186;3.236;2023-04-06T13:53:19;42.67;;;8.27;;
13520;SDS011;6832;51.186;3.236;2023-04-06T13:55:51;58.57;;;9.40;;
13520;SDS011;6832;51.186;3.236;2023-04-06T13:58:20;40.07;;;7.73;;
13520;SDS011;6832;51.186;3.236;2023-04-06T14:00:47;32.50;;;8.43;;
13520;SDS011;6832;51.186;3.236;2023-04-06T14:03:14;35.83;;;7.20;;
13520;SDS011;6832;51.186;3.236;2023-04-06T14:05:41;43.70;;;8.50;;
13520;SDS011;6832;51.186;3.236;2023-04-06T14:08:11;36.27;;;7.97;;
13520;SDS011;6832;51.186;3.236;2023-04-06T14:10:38;42.07;;;7.87;;
13520;SDS011;6832;51.186;3.236;2023-04-06T14:13:05;47.63;;;8.30;;
13520;SDS011;6832;51.186;3.236;2023-04-06T14:15:34;39.60;;;8.30;;
13520;SDS011;6832;51.186;3.236;2023-04-06T14:18:01;45.33;;;8.13;;
13520;SDS011;6832;51.186;3.236;2023-04-06T14:20:28;37.93;;;7.63;;
13520;SDS011;6832;51.186;3.236;2023-04-06T14:22:58;34.37;;;7.17;;
13520;SDS011;6832;51.186;3.236;2023-04-06T14:25:26;52.47;;;8.53;;
13520;SDS011;6832;51.186;3.236;2023-04-06T14:27:53;46.40;;;7.70;;
13520;SDS011;6832;51.186;3.236;2023-04-06T14:30:23;47.63;;;8.10;;
13520;SDS011;6832;51.186;3.236;2023-04-06T14:32:53;37.37;;;6.90;;
13520;SDS011;6832;51.186;3.236;2023-04-06T14:35:23;40.67;;;7.03;;
13520;SDS011;6832;51.186;3.236;2023-04-06T14:37:53;38.43;;;7.23;;
13520;SDS011;6832;51.186;3.236;2023-04-06T14:40:20;42.27;;;7.40;;
13520;SDS011;6832;51.186;3.236;2023-04-06T14:42:47;37.20;;;6.80;;
13520;SDS011;6832;51.186;3.236;2023-04-06T14:45:16;37.13;;;7.10;;
13520;SDS011;6832;51.186;3.236;2023-04-06T14:47:44;32.63;;;7.00;;
13520;SDS011;6832;51.186;3.236;2023-04-06T14:50:13;35.70;;;6.67;;